sensor_id;sensor_type;location;lat;lon;timestamp;pressure;altitude;pressure_sealevel;temperature;humidity
71621;BME280;59471;42.254;23.102;2024-03-06T00:01:50;95630.22;;;4.34;92.83
71621;BME280;59471;42.254;23.102;2024-03-06T00:04:16;95630.91;;;4.36;92.02
71621;BME280;59471;42.254;23.102;2024-03-06T00:06:41;95639.91;;;4.60;90.85
71621;BME280;59471;42.254;23.102;2024-03-06T00:09:07;95645.97;;;4.51;90.82
71621;BME280;59471;42.254;23.102;2024-03-06T00:11:34;95635.50;;;4.70;89.49
71621;BME280;59471;42.254;23.102;2024-03-06T00:14:02;95634.78;;;4.50;89.42
71621;BME280;59471;42.254;23.102;2024-03-06T00:16:28;95634.66;;;4.24;90.57
71621;BME280;59471;42.254;23.102;2024-03-06T00:18:53;95640.19;;;4.39;90.23
71621;BME280;59471;42.254;23.102;2024-03-06T00:21:19;95643.88;;;4.36;90.03
71621;BME280;59471;42.254;23.102;2024-03-06T00:23:44;95642.25;;;4.35;89.03
71621;BME280;59471;42.254;23.102;2024-03-06T00:26:11;95643.00;;;4.18;88.87
71621;BME280;59471;42.254;23.102;2024-03-06T00:28:38;95646.16;;;4.12;89.20
71621;BME280;59471;42.254;23.102;2024-03-06T00:31:07;95645.91;;;4.05;89.09
71621;BME280;59471;42.254;23.102;2024-03-06T00:33:33;95639.84;;;3.77;89.70
71621;BME280;59471;42.254;23.102;2024-03-06T00:35:58;95647.00;;;4.03;89.24
71621;BME280;59471;42.254;23.102;2024-03-06T00:38:24;95645.66;;;3.99;89.80
71621;BME280;59471;42.254;23.102;2024-03-06T00:40:49;95652.78;;;4.24;90.77
71621;BME280;59471;42.254;23.102;2024-03-06T00:43:15;95639.16;;;4.22;91.11
71621;BME280;59471;42.254;23.102;2024-03-06T00:45:40;95646.69;;;4.15;92.85
71621;BME280;59471;42.254;23.102;2024-03-06T00:48:07;95643.63;;;4.30;91.95
71621;BME280;59471;42.254;23.102;2024-03-06T00:50:33;95652.97;;;4.13;90.95
71621;BME280;59471;42.254;23.102;2024-03-06T00:52:58;95649.72;;;4.11;90.90
71621;BME280;59471;42.254;23.102;2024-03-06T00:55:24;95653.84;;;3.94;92.22
71621;BME280;59471;42.254;23.102;2024-03-06T00:57:49;95643.22;;;3.87;93.72
71621;BME280;59471;42.254;23.102;2024-03-06T01:00:15;95653.56;;;4.07;93.44
71621;BME280;59471;42.254;23.102;2024-03-06T01:02:41;95652.69;;;4.16;92.94
71621;BME280;59471;42.254;23.102;2024-03-06T01:05:07;95651.06;;;4.15;93.31
71621;BME280;59471;42.254;23.102;2024-03-06T01:07:35;95652.63;;;4.35;92.71
71621;BME280;59471;42.254;23.102;2024-03-06T01:10:03;95659.22;;;4.20;91.02
71621;BME280;59471;42.254;23.102;2024-03-06T01:12:32;95658.38;;;4.29;91.37
71621;BME280;59471;42.254;23.102;2024-03-06T01:15:00;95656.63;;;4.20;90.52
71621;BME280;59471;42.254;23.102;2024-03-06T01:17:26;95659.59;;;4.25;92.29
71621;BME280;59471;42.254;23.102;2024-03-06T01:19:52;95657.53;;;4.38;92.51
71621;BME280;59471;42.254;23.102;2024-03-06T01:22:18;95664.78;;;4.25;93.81
71621;BME280;59471;42.254;23.102;2024-03-06T01:24:43;95660.84;;;4.21;93.53
71621;BME280;59471;42.254;23.102;2024-03-06T01:27:09;95659.59;;;4.25;93.52
71621;BME280;59471;42.254;23.102;2024-03-06T01:29:35;95668.19;;;4.35;93.09
71621;BME280;59471;42.254;23.102;2024-03-06T01:32:01;95668.94;;;4.46;92.91
71621;BME280;59471;42.254;23.102;2024-03-06T01:34:26;95668.34;;;4.24;93.20
71621;BME280;59471;42.254;23.102;2024-03-06T01:36:52;95673.84;;;4.49;92.59
71621;BME280;59471;42.254;23.102;2024-03-06T01:39:18;95673.72;;;4.40;92.46
71621;BME280;59471;42.254;23.102;2024-03-06T01:41:48;95670.38;;;4.58;92.77
71621;BME280;59471;42.254;23.102;2024-03-06T01:44:15;95674.19;;;4.81;92.64
71621;BME280;59471;42.254;23.102;2024-03-06T01:46:44;95679.41;;;4.81;91.66
71621;BME280;59471;42.254;23.102;2024-03-06T01:49:15;95683.81;;;4.71;91.75
71621;BME280;59471;42.254;23.102;2024-03-06T01:51:42;95675.47;;;4.77;91.62
71621;BME280;59471;42.254;23.102;2024-03-06T01:54:10;95681.06;;;4.55;91.41
71621;BME280;59471;42.254;23.102;2024-03-06T01:56:38;95685.84;;;4.50;91.23
71621;BME280;59471;42.254;23.102;2024-03-06T01:59:07;95683.97;;;4.42;89.35
71621;BME280;59471;42.254;23.102;2024-03-06T02:01:32;95678.38;;;4.37;88.93
71621;BME280;59471;42.254;23.102;2024-03-06T02:03:59;95683.56;;;4.00;89.18
71621;BME280;59471;42.254;23.102;2024-03-06T02:06:25;95684.81;;;3.95;90.66
71621;BME280;59471;42.254;23.102;2024-03-06T02:08:51;95683.91;;;3.67;92.65
71621;BME280;59471;42.254;23.102;2024-03-06T02:11:17;95688.41;;;3.56;93.23
71621;BME280;59471;42.254;23.102;2024-03-06T02:13:43;95693.31;;;3.59;93.58
71621;BME280;59471;42.254;23.102;2024-03-06T02:16:09;95692.44;;;3.87;93.65
71621;BME280;59471;42.254;23.102;2024-03-06T02:18:35;95700.34;;;3.95;91.91
71621;BME280;59471;42.254;23.102;2024-03-06T02:21:02;95702.78;;;3.97;92.08
71621;BME280;59471;42.254;23.102;2024-03-06T02:23:30;95706.25;;;3.88;93.68
71621;BME280;59471;42.254;23.102;2024-03-06T02:25:56;95705.94;;;4.01;91.89
71621;BME280;59471;42.254;23.102;2024-03-06T02:28:21;95707.84;;;3.99;91.10
71621;BME280;59471;42.254;23.102;2024-03-06T02:30:50;95705.84;;;3.83;90.47
71621;BME280;59471;42.254;23.102;2024-03-06T02:33:16;95710.34;;;3.71;89.27
71621;BME280;59471;42.254;23.102;2024-03-06T02:35:43;95709.81;;;3.38;89.75
71621;BME280;59471;42.254;23.102;2024-03-06T02:38:10;95713.50;;;3.16;90.70
71621;BME280;59471;42.254;23.102;2024-03-06T02:40:35;95711.34;;;2.62;93.81
71621;BME280;59471;42.254;23.102;2024-03-06T02:43:01;95712.19;;;2.72;94.05
71621;BME280;59471;42.254;23.102;2024-03-06T02:45:26;95713.19;;;2.50;94.18
71621;BME280;59471;42.254;23.102;2024-03-06T02:47:52;95705.56;;;2.48;93.34
71621;BME280;59471;42.254;23.102;2024-03-06T02:50:17;95707.28;;;2.69;93.32
71621;BME280;59471;42.254;23.102;2024-03-06T02:52:43;95714.53;;;2.44;94.82
71621;BME280;59471;42.254;23.102;2024-03-06T02:55:09;95715.25;;;2.56;94.25
71621;BME280;59471;42.254;23.102;2024-03-06T02:57:34;95711.28;;;2.52;93.93
71621;BME280;59471;42.254;23.102;2024-03-06T03:00:00;95718.09;;;2.53;94.38
71621;BME280;59471;42.254;23.102;2024-03-06T03:02:25;95715.56;;;2.63;94.83
71621;BME280;59471;42.254;23.102;2024-03-06T03:04:51;95713.81;;;2.73;95.17
71621;BME280;59471;42.254;23.102;2024-03-06T03:07:20;95714.50;;;2.75;95.68
71621;BME280;59471;42.254;23.102;2024-03-06T03:09:46;95715.72;;;2.81;95.66
71621;BME280;59471;42.254;23.102;2024-03-06T03:12:12;95711.66;;;2.78;95.92
71621;BME280;59471;42.254;23.102;2024-03-06T03:14:41;95705.56;;;2.98;96.24
71621;BME280;59471;42.254;23.102;2024-03-06T03:17:08;95719.63;;;3.25;94.79
71621;BME280;59471;42.254;23.102;2024-03-06T03:19:34;95713.50;;;3.26;93.35
71621;BME280;59471;42.254;23.102;2024-03-06T03:22:00;95724.19;;;2.92;94.50
71621;BME280;59471;42.254;23.102;2024-03-06T03:24:25;95723.88;;;2.76;95.76
71621;BME280;59471;42.254;23.102;2024-03-06T03:26:52;95727.06;;;3.09;95.32
71621;BME280;59471;42.254;23.102;2024-03-06T03:29:18;95729.97;;;3.25;94.79
71621;BME280;59471;42.254;23.102;2024-03-06T03:31:44;95732.03;;;3.31;92.64
71621;BME280;59471;42.254;23.102;2024-03-06T03:34:09;95735.16;;;3.25;92.04
71621;BME280;59471;42.254;23.102;2024-03-06T03:36:40;95737.16;;;3.21;91.30
71621;BME280;59471;42.254;23.102;2024-03-06T03:39:06;95740.78;;;2.80;92.20
71621;BME280;59471;42.254;23.102;2024-03-06T03:41:42;95747.34;;;2.53;92.87
71621;BME280;59471;42.254;23.102;2024-03-06T03:44:08;95736.31;;;2.51;92.38
71621;BME280;59471;42.254;23.102;2024-03-06T03:46:33;95747.59;;;2.81;92.13
71621;BME280;59471;42.254;23.102;2024-03-06T03:48:59;95751.28;;;2.88;91.39
71621;BME280;59471;42.254;23.102;2024-03-06T03:51:24;95753.81;;;2.69;91.56
71621;BME280;59471;42.254;23.102;2024-03-06T03:53:50;95751.03;;;2.30;92.44
71621;BME280;59471;42.254;23.102;2024-03-06T03:56:18;95759.31;;;2.54;92.70
71621;BME280;59471;42.254;23.102;2024-03-06T03:58:43;95757.06;;;2.71;91.91
71621;BME280;59471;42.254;23.102;2024-03-06T04:01:11;95759.47;;;2.53;91.15
71621;BME280;59471;42.254;23.102;2024-03-06T04:03:36;95757.25;;;2.48;91.23
71621;BME280;59471;42.254;23.102;2024-03-06T04:06:02;95764.50;;;2.54;91.26
71621;BME280;59471;42.254;23.102;2024-03-06T04:08:27;95763.47;;;2.67;90.25
71621;BME280;59471;42.254;23.102;2024-03-06T04:10:53;95764.69;;;2.63;90.07
71621;BME280;59471;42.254;23.102;2024-03-06T04:13:18;95779.41;;;2.41;90.92
71621;BME280;59471;42.254;23.102;2024-03-06T04:15:45;95778.94;;;2.57;91.82
71621;BME280;59471;42.254;23.102;2024-03-06T04:18:11;95781.22;;;2.50;91.52
71621;BME280;59471;42.254;23.102;2024-03-06T04:20:37;95791.88;;;2.36;92.15
71621;BME280;59471;42.254;23.102;2024-03-06T04:23:02;95797.06;;;2.36;92.70
71621;BME280;59471;42.254;23.102;2024-03-06T04:25:28;95791.78;;;2.38;92.60
71621;BME280;59471;42.254;23.102;2024-03-06T04:27:53;95801.09;;;2.50;92.89
71621;BME280;59471;42.254;23.102;2024-03-06T04:30:19;95792.41;;;2.61;90.54
71621;BME280;59471;42.254;23.102;2024-03-06T04:32:44;95796.94;;;2.17;91.22
71621;BME280;59471;42.254;23.102;2024-03-06T04:35:10;95791.97;;;2.25;91.54
71621;BME280;59471;42.254;23.102;2024-03-06T04:37:36;95795.16;;;2.38;90.49
71621;BME280;59471;42.254;23.102;2024-03-06T04:40:03;95799.63;;;2.36;90.53
71621;BME280;59471;42.254;23.102;2024-03-06T04:42:35;95800.78;;;2.43;90.27
71621;BME280;59471;42.254;23.102;2024-03-06T04:45:10;95806.50;;;2.47;90.19
71621;BME280;59471;42.254;23.102;2024-03-06T04:47:40;95805.94;;;2.43;89.57
71621;BME280;59471;42.254;23.102;2024-03-06T04:50:10;95802.06;;;2.28;89.65
71621;BME280;59471;42.254;23.102;2024-03-06T04:52:40;95807.78;;;2.11;90.04
71621;BME280;59471;42.254;23.102;2024-03-06T04:55:06;95815.41;;;1.91;90.83
71621;BME280;59471;42.254;23.102;2024-03-06T04:57:35;95804.56;;;1.97;91.28
71621;BME280;59471;42.254;23.102;2024-03-06T05:00:02;95809.88;;;2.17;90.92
71621;BME280;59471;42.254;23.102;2024-03-06T05:02:31;95809.97;;;2.36;89.43
71621;BME280;59471;42.254;23.102;2024-03-06T05:05:02;95811.50;;;2.39;89.66
71621;BME280;59471;42.254;23.102;2024-03-06T05:07:29;95810.72;;;2.27;89.20
71621;BME280;59471;42.254;23.102;2024-03-06T05:09:55;95809.59;;;2.20;90.31
71621;BME280;59471;42.254;23.102;2024-03-06T05:12:23;95823.84;;;1.93;90.68
71621;BME280;59471;42.254;23.102;2024-03-06T05:14:49;95824.34;;;1.87;91.74
71621;BME280;59471;42.254;23.102;2024-03-06T05:17:15;95835.31;;;2.00;91.21
71621;BME280;59471;42.254;23.102;2024-03-06T05:19:41;95838.59;;;2.02;91.23
71621;BME280;59471;42.254;23.102;2024-03-06T05:22:06;95830.72;;;2.04;92.16
71621;BME280;59471;42.254;23.102;2024-03-06T05:24:32;95826.44;;;2.14;91.32
71621;BME280;59471;42.254;23.102;2024-03-06T05:26:57;95837.09;;;2.21;90.96
71621;BME280;59471;42.254;23.102;2024-03-06T05:29:23;95842.09;;;2.34;90.52
71621;BME280;59471;42.254;23.102;2024-03-06T05:31:48;95840.72;;;2.39;90.18
71621;BME280;59471;42.254;23.102;2024-03-06T05:34:14;95839.69;;;2.21;90.37
71621;BME280;59471;42.254;23.102;2024-03-06T05:36:39;95851.94;;;2.07;90.86
71621;BME280;59471;42.254;23.102;2024-03-06T05:39:05;95849.53;;;1.95;91.82
71621;BME280;59471;42.254;23.102;2024-03-06T05:41:32;95848.94;;;2.23;91.84
71621;BME280;59471;42.254;23.102;2024-03-06T05:43:58;95857.81;;;2.09;92.22
71621;BME280;59471;42.254;23.102;2024-03-06T05:46:24;95848.13;;;2.23;92.66
71621;BME280;59471;42.254;23.102;2024-03-06T05:48:50;95851.28;;;2.47;92.08
71621;BME280;59471;42.254;23.102;2024-03-06T05:51:17;95860.19;;;2.64;90.80
71621;BME280;59471;42.254;23.102;2024-03-06T05:53:43;95853.34;;;2.53;90.88
71621;BME280;59471;42.254;23.102;2024-03-06T05:56:09;95858.31;;;2.66;91.18
71621;BME280;59471;42.254;23.102;2024-03-06T05:58:35;95864.00;;;2.60;91.61
71621;BME280;59471;42.254;23.102;2024-03-06T06:01:01;95857.25;;;2.69;91.64
71621;BME280;59471;42.254;23.102;2024-03-06T06:03:32;95862.22;;;2.82;91.18
71621;BME280;59471;42.254;23.102;2024-03-06T06:05:57;95869.00;;;2.83;91.37
71621;BME280;59471;42.254;23.102;2024-03-06T06:08:23;95865.53;;;2.93;91.31
71621;BME280;59471;42.254;23.102;2024-03-06T06:10:49;95863.13;;;3.11;90.69
71621;BME280;59471;42.254;23.102;2024-03-06T06:13:17;95863.16;;;3.21;90.28
71621;BME280;59471;42.254;23.102;2024-03-06T06:15:43;95864.72;;;3.02;91.46
71621;BME280;59471;42.254;23.102;2024-03-06T06:18:09;95857.19;;;3.30;90.75
71621;BME280;59471;42.254;23.102;2024-03-06T06:20:35;95855.56;;;3.29;89.90
71621;BME280;59471;42.254;23.102;2024-03-06T06:23:01;95866.38;;;3.34;90.39
71621;BME280;59471;42.254;23.102;2024-03-06T06:25:26;95863.66;;;3.05;91.53
71621;BME280;59471;42.254;23.102;2024-03-06T06:27:52;95867.38;;;2.82;92.96
71621;BME280;59471;42.254;23.102;2024-03-06T06:30:19;95860.50;;;3.01;93.16
71621;BME280;59471;42.254;23.102;2024-03-06T06:32:44;95859.88;;;3.09;93.01
71621;BME280;59471;42.254;23.102;2024-03-06T06:35:10;95856.19;;;3.12;93.04
71621;BME280;59471;42.254;23.102;2024-03-06T06:37:38;95857.53;;;3.56;90.76
71621;BME280;59471;42.254;23.102;2024-03-06T06:40:06;95854.28;;;3.64;90.13
71621;BME280;59471;42.254;23.102;2024-03-06T06:42:33;95853.19;;;3.66;90.56
71621;BME280;59471;42.254;23.102;2024-03-06T06:45:00;95855.38;;;3.71;89.53
71621;BME280;59471;42.254;23.102;2024-03-06T06:47:26;95854.63;;;3.30;92.71
71621;BME280;59471;42.254;23.102;2024-03-06T06:49:52;95856.69;;;3.46;92.30
71621;BME280;59471;42.254;23.102;2024-03-06T06:52:17;95849.63;;;3.58;92.18
71621;BME280;59471;42.254;23.102;2024-03-06T06:54:43;95859.22;;;3.86;92.11
71621;BME280;59471;42.254;23.102;2024-03-06T06:57:08;95862.88;;;3.84;91.71
71621;BME280;59471;42.254;23.102;2024-03-06T06:59:34;95860.97;;;3.76;92.04
71621;BME280;59471;42.254;23.102;2024-03-06T07:02:00;95863.31;;;3.99;92.50
71621;BME280;59471;42.254;23.102;2024-03-06T07:04:26;95853.34;;;3.84;92.59
71621;BME280;59471;42.254;23.102;2024-03-06T07:06:51;95861.94;;;4.14;92.61
71621;BME280;59471;42.254;23.102;2024-03-06T07:09:17;95863.84;;;4.31;92.39
71621;BME280;59471;42.254;23.102;2024-03-06T07:11:44;95855.69;;;4.26;91.42
71621;BME280;59471;42.254;23.102;2024-03-06T07:14:11;95851.00;;;4.49;92.16
71621;BME280;59471;42.254;23.102;2024-03-06T07:16:44;95856.28;;;4.67;89.98
71621;BME280;59471;42.254;23.102;2024-03-06T07:19:11;95853.84;;;5.03;89.43
71621;BME280;59471;42.254;23.102;2024-03-06T07:21:36;95852.41;;;5.18;89.82
71621;BME280;59471;42.254;23.102;2024-03-06T07:24:03;95854.78;;;5.39;89.63
71621;BME280;59471;42.254;23.102;2024-03-06T07:26:30;95857.34;;;5.67;88.58
71621;BME280;59471;42.254;23.102;2024-03-06T07:28:57;95860.03;;;5.75;87.67
71621;BME280;59471;42.254;23.102;2024-03-06T07:31:23;95867.72;;;5.67;87.57
71621;BME280;59471;42.254;23.102;2024-03-06T07:33:49;95856.53;;;5.66;88.16
71621;BME280;59471;42.254;23.102;2024-03-06T07:36:14;95859.94;;;5.94;87.92
71621;BME280;59471;42.254;23.102;2024-03-06T07:38:41;95858.28;;;6.11;88.56
71621;BME280;59471;42.254;23.102;2024-03-06T07:41:07;95856.81;;;6.09;86.37
71621;BME280;59471;42.254;23.102;2024-03-06T07:43:33;95859.56;;;6.25;86.79
71621;BME280;59471;42.254;23.102;2024-03-06T07:45:58;95854.19;;;6.44;87.21
71621;BME280;59471;42.254;23.102;2024-03-06T07:48:24;95861.84;;;6.28;87.23
71621;BME280;59471;42.254;23.102;2024-03-06T07:50:50;95850.56;;;6.63;86.91
71621;BME280;59471;42.254;23.102;2024-03-06T07:53:15;95846.53;;;6.69;86.27
71621;BME280;59471;42.254;23.102;2024-03-06T07:55:41;95848.84;;;6.72;86.53
71621;BME280;59471;42.254;23.102;2024-03-06T07:58:07;95852.28;;;6.81;86.75
71621;BME280;59471;42.254;23.102;2024-03-06T08:00:34;95849.44;;;6.92;85.72
71621;BME280;59471;42.254;23.102;2024-03-06T08:03:00;95849.34;;;6.76;86.15
71621;BME280;59471;42.254;23.102;2024-03-06T08:05:26;95851.03;;;6.85;85.93
71621;BME280;59471;42.254;23.102;2024-03-06T08:07:51;95845.75;;;7.37;85.00
71621;BME280;59471;42.254;23.102;2024-03-06T08:10:17;95847.06;;;7.41;83.44
71621;BME280;59471;42.254;23.102;2024-03-06T08:12:44;95857.38;;;7.51;83.92
71621;BME280;59471;42.254;23.102;2024-03-06T08:15:12;95855.97;;;7.81;82.78
71621;BME280;59471;42.254;23.102;2024-03-06T08:17:40;95853.72;;;7.86;81.52
71621;BME280;59471;42.254;23.102;2024-03-06T08:20:10;95851.47;;;8.16;80.45
71621;BME280;59471;42.254;23.102;2024-03-06T08:22:38;95844.78;;;8.05;79.90
71621;BME280;59471;42.254;23.102;2024-03-06T08:25:09;95846.75;;;8.35;77.90
71621;BME280;59471;42.254;23.102;2024-03-06T08:27:38;95839.69;;;7.87;77.78
71621;BME280;59471;42.254;23.102;2024-03-06T08:30:05;95839.69;;;7.87;79.34
71621;BME280;59471;42.254;23.102;2024-03-06T08:32:32;95837.44;;;7.92;79.02
71621;BME280;59471;42.254;23.102;2024-03-06T08:35:10;95833.53;;;8.12;79.58
71621;BME280;59471;42.254;23.102;2024-03-06T08:37:37;95842.50;;;8.34;78.91
71621;BME280;59471;42.254;23.102;2024-03-06T08:40:07;95829.59;;;7.92;78.89
71621;BME280;59471;42.254;23.102;2024-03-06T08:42:35;95827.00;;;8.25;78.14
71621;BME280;59471;42.254;23.102;2024-03-06T08:45:02;95832.59;;;8.54;77.74
71621;BME280;59471;42.254;23.102;2024-03-06T08:47:27;95832.72;;;8.77;77.51
71621;BME280;59471;42.254;23.102;2024-03-06T08:49:53;95829.63;;;8.66;77.54
71621;BME280;59471;42.254;23.102;2024-03-06T08:52:19;95833.53;;;8.86;77.19
71621;BME280;59471;42.254;23.102;2024-03-06T08:54:46;95828.72;;;8.98;76.01
71621;BME280;59471;42.254;23.102;2024-03-06T08:57:12;95827.88;;;9.14;75.47
71621;BME280;59471;42.254;23.102;2024-03-06T08:59:38;95830.13;;;9.33;75.63
71621;BME280;59471;42.254;23.102;2024-03-06T09:02:17;95835.38;;;9.56;74.89
71621;BME280;59471;42.254;23.102;2024-03-06T09:04:45;95828.00;;;9.20;73.28
71621;BME280;59471;42.254;23.102;2024-03-06T09:07:12;95833.31;;;9.43;74.11
71621;BME280;59471;42.254;23.102;2024-03-06T09:09:38;95824.94;;;9.87;73.98
71621;BME280;59471;42.254;23.102;2024-03-06T09:12:07;95826.66;;;9.95;72.35
71621;BME280;59471;42.254;23.102;2024-03-06T09:14:37;95827.69;;;9.55;71.94
71621;BME280;59471;42.254;23.102;2024-03-06T09:17:04;95823.81;;;9.82;73.50
71621;BME280;59471;42.254;23.102;2024-03-06T09:19:31;95833.19;;;10.22;70.68
71621;BME280;59471;42.254;23.102;2024-03-06T09:21:57;95829.91;;;10.28;68.59
71621;BME280;59471;42.254;23.102;2024-03-06T09:24:24;95819.34;;;10.13;70.83
71621;BME280;59471;42.254;23.102;2024-03-06T09:26:53;95822.75;;;10.60;71.11
71621;BME280;59471;42.254;23.102;2024-03-06T09:29:19;95820.06;;;10.68;69.77
71621;BME280;59471;42.254;23.102;2024-03-06T09:31:45;95810.69;;;11.03;69.02
71621;BME280;59471;42.254;23.102;2024-03-06T09:34:12;95810.06;;;11.16;67.15
71621;BME280;59471;42.254;23.102;2024-03-06T09:36:40;95810.88;;;11.02;68.63
71621;BME280;59471;42.254;23.102;2024-03-06T09:39:13;95810.97;;;11.23;68.21
71621;BME280;59471;42.254;23.102;2024-03-06T09:41:46;95806.38;;;11.10;66.47
71621;BME280;59471;42.254;23.102;2024-03-06T09:44:15;95805.34;;;11.26;65.49
71621;BME280;59471;42.254;23.102;2024-03-06T09:46:43;95793.50;;;11.30;66.25
71621;BME280;59471;42.254;23.102;2024-03-06T09:49:10;95794.31;;;11.46;65.03
71621;BME280;59471;42.254;23.102;2024-03-06T09:51:38;95794.44;;;11.59;65.26
71621;BME280;59471;42.254;23.102;2024-03-06T09:54:07;95796.97;;;11.67;65.50
71621;BME280;59471;42.254;23.102;2024-03-06T09:56:33;95795.97;;;11.68;65.54
71621;BME280;59471;42.254;23.102;2024-03-06T09:58:59;95799.72;;;11.80;64.04
71621;BME280;59471;42.254;23.102;2024-03-06T10:01:25;95786.72;;;11.87;65.01
71621;BME280;59471;42.254;23.102;2024-03-06T10:03:51;95779.75;;;11.79;64.82
71621;BME280;59471;42.254;23.102;2024-03-06T10:06:17;95790.22;;;12.16;64.60
71621;BME280;59471;42.254;23.102;2024-03-06T10:08:43;95785.78;;;12.16;63.28
71621;BME280;59471;42.254;23.102;2024-03-06T10:11:11;95787.53;;;12.31;63.79
71621;BME280;59471;42.254;23.102;2024-03-06T10:13:36;95781.91;;;11.91;62.57
71621;BME280;59471;42.254;23.102;2024-03-06T10:16:04;95782.53;;;12.14;63.13
71621;BME280;59471;42.254;23.102;2024-03-06T10:18:34;95783.59;;;12.48;63.56
71621;BME280;59471;42.254;23.102;2024-03-06T10:20:59;95776.34;;;12.50;61.70
71621;BME280;59471;42.254;23.102;2024-03-06T10:23:26;95775.59;;;12.56;60.37
71621;BME280;59471;42.254;23.102;2024-03-06T10:25:54;95766.63;;;12.44;60.97
71621;BME280;59471;42.254;23.102;2024-03-06T10:28:21;95767.19;;;12.67;59.58
71621;BME280;59471;42.254;23.102;2024-03-06T10:30:48;95762.59;;;12.48;59.89
71621;BME280;59471;42.254;23.102;2024-03-06T10:33:16;95761.22;;;12.52;60.10
71621;BME280;59471;42.254;23.102;2024-03-06T10:35:45;95753.47;;;12.72;59.29
71621;BME280;59471;42.254;23.102;2024-03-06T10:38:13;95749.03;;;12.72;59.26
71621;BME280;59471;42.254;23.102;2024-03-06T10:40:43;95739.66;;;12.98;58.52
71621;BME280;59471;42.254;23.102;2024-03-06T10:43:10;95744.88;;;13.26;58.14
71621;BME280;59471;42.254;23.102;2024-03-06T10:45:58;95747.97;;;13.02;56.93
71621;BME280;59471;42.254;23.102;2024-03-06T10:48:27;95736.81;;;13.28;58.06
71621;BME280;59471;42.254;23.102;2024-03-06T10:50:54;95738.97;;;13.65;56.76
71621;BME280;59471;42.254;23.102;2024-03-06T10:53:22;95736.75;;;13.89;52.73
71621;BME280;59471;42.254;23.102;2024-03-06T10:55:49;95731.94;;;13.25;55.39
71621;BME280;59471;42.254;23.102;2024-03-06T10:58:16;95729.38;;;13.51;55.16
71621;BME280;59471;42.254;23.102;2024-03-06T11:00:46;95724.81;;;13.86;55.96
71621;BME280;59471;42.254;23.102;2024-03-06T11:03:13;95727.66;;;14.11;53.64
71621;BME280;59471;42.254;23.102;2024-03-06T11:05:39;95722.16;;;13.80;52.95
71621;BME280;59471;42.254;23.102;2024-03-06T11:08:09;95711.47;;;13.88;53.19
71621;BME280;59471;42.254;23.102;2024-03-06T11:10:40;95707.81;;;14.02;52.38
71621;BME280;59471;42.254;23.102;2024-03-06T11:15:52;95697.03;;;13.57;53.91
71621;BME280;59471;42.254;23.102;2024-03-06T11:18:45;95691.19;;;13.75;54.28
71621;BME280;59471;42.254;23.102;2024-03-06T11:26:49;95672.16;;;14.20;51.19
71621;BME280;59471;42.254;23.102;2024-03-06T11:29:17;95665.66;;;14.55;51.46
71621;BME280;59471;42.254;23.102;2024-03-06T11:34:31;95665.25;;;14.52;48.38
71621;BME280;59471;42.254;23.102;2024-03-06T11:36:57;95657.59;;;14.10;49.39
71621;BME280;59471;42.254;23.102;2024-03-06T11:39:23;95659.59;;;14.08;49.71
71621;BME280;59471;42.254;23.102;2024-03-06T11:41:50;95648.22;;;14.28;51.04
71621;BME280;59471;42.254;23.102;2024-03-06T11:44:17;95647.78;;;14.71;48.38
71621;BME280;59471;42.254;23.102;2024-03-06T11:46:56;95638.88;;;14.58;48.87
71621;BME280;59471;42.254;23.102;2024-03-06T11:49:26;95635.50;;;14.96;45.78
71621;BME280;59471;42.254;23.102;2024-03-06T11:52:09;95630.94;;;15.23;49.72
71621;BME280;59471;42.254;23.102;2024-03-06T11:54:35;95628.41;;;15.35;48.22
71621;BME280;59471;42.254;23.102;2024-03-06T11:57:02;95612.81;;;14.95;47.69
71621;BME280;59471;42.254;23.102;2024-03-06T11:59:33;95621.06;;;14.60;44.35
71621;BME280;59471;42.254;23.102;2024-03-06T12:02:04;95618.13;;;14.89;45.78
71621;BME280;59471;42.254;23.102;2024-03-06T12:04:31;95614.34;;;15.10;47.42
71621;BME280;59471;42.254;23.102;2024-03-06T12:07:00;95611.66;;;15.16;44.17
71621;BME280;59471;42.254;23.102;2024-03-06T12:09:30;95598.56;;;15.35;44.49
71621;BME280;59471;42.254;23.102;2024-03-06T12:11:56;95604.97;;;15.52;44.18
71621;BME280;59471;42.254;23.102;2024-03-06T12:14:22;95603.44;;;14.99;44.43
71621;BME280;59471;42.254;23.102;2024-03-06T12:17:01;95598.94;;;15.06;43.07
71621;BME280;59471;42.254;23.102;2024-03-06T12:19:33;95597.25;;;15.19;42.94
71621;BME280;59471;42.254;23.102;2024-03-06T12:22:01;95591.63;;;15.09;44.37
71621;BME280;59471;42.254;23.102;2024-03-06T12:24:28;95588.25;;;15.33;45.67
71621;BME280;59471;42.254;23.102;2024-03-06T12:27:01;95587.03;;;15.36;42.92
71621;BME280;59471;42.254;23.102;2024-03-06T12:29:32;95577.88;;;15.63;44.04
71621;BME280;59471;42.254;23.102;2024-03-06T12:31:59;95580.94;;;15.67;44.01
71621;BME280;59471;42.254;23.102;2024-03-06T12:34:25;95579.28;;;15.66;43.61
71621;BME280;59471;42.254;23.102;2024-03-06T12:36:51;95584.47;;;15.47;42.08
71621;BME280;59471;42.254;23.102;2024-03-06T12:39:17;95574.66;;;14.98;42.59
71621;BME280;59471;42.254;23.102;2024-03-06T12:41:51;95582.84;;;14.83;43.30
71621;BME280;59471;42.254;23.102;2024-03-06T12:44:19;95582.53;;;14.46;44.47
71621;BME280;59471;42.254;23.102;2024-03-06T12:46:45;95577.94;;;14.35;44.61
71621;BME280;59471;42.254;23.102;2024-03-06T12:49:10;95591.94;;;14.22;45.05
71621;BME280;59471;42.254;23.102;2024-03-06T12:51:36;95581.81;;;14.26;43.59
71621;BME280;59471;42.254;23.102;2024-03-06T12:54:01;95588.31;;;14.17;46.37
71621;BME280;59471;42.254;23.102;2024-03-06T12:56:29;95598.44;;;13.93;45.12
71621;BME280;59471;42.254;23.102;2024-03-06T12:58:54;95593.38;;;13.98;45.38
71621;BME280;59471;42.254;23.102;2024-03-06T13:01:20;95605.75;;;13.51;51.73
71621;BME280;59471;42.254;23.102;2024-03-06T13:03:45;95605.31;;;13.34;55.19
71621;BME280;59471;42.254;23.102;2024-03-06T13:06:11;95609.69;;;13.07;57.91
71621;BME280;59471;42.254;23.102;2024-03-06T13:08:37;95615.66;;;12.81;59.79